createdAt,value
2023-08-17T00:01:09.536Z,1.85
2023-08-17T00:03:36.105Z,1.80
2023-08-17T00:06:02.605Z,1.90
2023-08-17T00:08:29.135Z,2.00
2023-08-17T00:10:55.618Z,1.92
2023-08-17T00:13:22.126Z,1.83
2023-08-17T00:15:50.032Z,1.85
2023-08-17T00:18:16.647Z,1.92
2023-08-17T00:20:43.048Z,2.15
2023-08-17T00:23:09.645Z,1.75
2023-08-17T00:25:36.647Z,2.00
2023-08-17T00:28:03.399Z,1.95
2023-08-17T00:30:29.866Z,2.45
2023-08-17T00:32:56.288Z,2.28
2023-08-17T00:35:22.900Z,2.05
2023-08-17T00:37:49.760Z,1.92
2023-08-17T00:40:16.207Z,2.05
2023-08-17T00:42:42.822Z,2.10
2023-08-17T00:45:09.899Z,2.45
2023-08-17T00:47:36.849Z,2.08
2023-08-17T00:50:03.739Z,2.10
2023-08-17T00:52:33.227Z,1.80
2023-08-17T00:55:01.657Z,2.22
2023-08-17T00:57:29.521Z,2.08
2023-08-17T01:00:04.703Z,1.83
2023-08-17T01:02:32.822Z,2.30
2023-08-17T01:04:59.679Z,2.03
2023-08-17T01:07:26.443Z,1.67
2023-08-17T01:09:53.417Z,1.83
2023-08-17T01:12:33.069Z,2.05
2023-08-17T01:14:59.463Z,1.55
2023-08-17T01:17:31.403Z,1.50
2023-08-17T01:19:59.944Z,1.65
2023-08-17T01:22:28.485Z,1.48
2023-08-17T01:25:00.566Z,1.95
2023-08-17T01:27:30.712Z,1.73
2023-08-17T01:29:57.472Z,2.08
2023-08-17T01:32:28.579Z,1.67
2023-08-17T01:35:05.454Z,1.85
2023-08-17T01:37:36.729Z,1.70
2023-08-17T01:40:06.172Z,2.05
2023-08-17T01:42:33.013Z,1.50
2023-08-17T01:44:59.725Z,2.15
2023-08-17T01:47:26.889Z,1.92
2023-08-17T01:49:54.031Z,1.88
2023-08-17T01:52:20.694Z,2.90
2023-08-17T01:54:47.253Z,1.60
2023-08-17T01:57:13.751Z,1.65
2023-08-17T01:59:40.300Z,3.13
2023-08-17T02:02:07.112Z,1.98
2023-08-17T02:04:33.580Z,1.75
2023-08-17T02:07:00.163Z,2.03
2023-08-17T02:09:26.798Z,1.60
2023-08-17T02:11:53.273Z,2.03
2023-08-17T02:14:19.834Z,2.22
2023-08-17T02:16:46.317Z,1.95
2023-08-17T02:19:12.787Z,3.17
2023-08-17T02:21:39.288Z,2.45
2023-08-17T02:24:06.185Z,2.35
2023-08-17T02:26:34.414Z,2.28
2023-08-17T02:29:00.946Z,2.80
2023-08-17T02:31:27.401Z,2.17
2023-08-17T02:33:54.260Z,2.22
2023-08-17T02:36:20.756Z,2.55
2023-08-17T02:38:47.534Z,2.28
2023-08-17T02:41:13.999Z,2.30
2023-08-17T02:43:40.688Z,2.42
2023-08-17T02:46:08.498Z,2.10
2023-08-17T02:48:35.211Z,2.25
2023-08-17T02:51:01.803Z,2.30
2023-08-17T02:53:28.433Z,2.03
2023-08-17T02:55:54.960Z,2.55
2023-08-17T02:58:21.528Z,1.92
2023-08-17T03:00:48.003Z,2.42
2023-08-17T03:03:17.070Z,1.83
2023-08-17T03:05:43.585Z,2.40
2023-08-17T03:08:10.228Z,2.00
2023-08-17T03:10:38.533Z,2.38
2023-08-17T03:13:05.156Z,2.03
2023-08-17T03:15:31.789Z,2.17
2023-08-17T03:17:58.335Z,1.98
2023-08-17T03:20:24.936Z,2.13
2023-08-17T03:22:51.393Z,2.40
2023-08-17T03:25:19.906Z,1.77
2023-08-17T03:27:46.755Z,2.05
2023-08-17T03:30:13.203Z,2.15
2023-08-17T03:32:39.632Z,1.67
2023-08-17T03:35:06.725Z,2.33
2023-08-17T03:40:01.515Z,1.98
2023-08-17T03:42:28.196Z,1.42
2023-08-17T03:44:55.855Z,2.15
2023-08-17T03:47:22.402Z,2.33
2023-08-17T03:49:48.854Z,2.17
2023-08-17T03:52:15.290Z,1.83
2023-08-17T03:54:41.724Z,2.30
2023-08-17T03:57:08.246Z,1.92
2023-08-17T03:59:34.723Z,2.22
2023-08-17T04:02:01.364Z,1.90
2023-08-17T04:04:28.592Z,2.33
2023-08-17T04:06:55.201Z,2.30
2023-08-17T04:09:21.788Z,1.85
2023-08-17T04:11:48.236Z,1.75
2023-08-17T04:14:15.256Z,1.88
2023-08-17T04:19:08.764Z,1.80
2023-08-17T04:24:01.635Z,1.42
2023-08-17T04:26:28.122Z,1.65
2023-08-17T04:28:54.725Z,1.75
2023-08-17T04:31:21.190Z,2.20
2023-08-17T04:33:47.740Z,1.65
2023-08-17T04:36:14.436Z,1.52
2023-08-17T04:38:40.955Z,1.60
2023-08-17T04:41:07.665Z,1.33
2023-08-17T04:43:34.114Z,1.83
2023-08-17T04:46:00.586Z,1.38
2023-08-17T04:48:27.332Z,1.40
2023-08-17T04:50:53.880Z,1.63
2023-08-17T04:53:20.310Z,1.55
2023-08-17T04:55:46.790Z,1.63
2023-08-17T04:58:13.343Z,1.42
2023-08-17T05:00:39.820Z,1.73
2023-08-17T05:03:09.629Z,1.63
2023-08-17T05:05:38.399Z,1.55
2023-08-17T05:08:05.283Z,1.13
2023-08-17T05:10:31.740Z,1.33
2023-08-17T05:12:58.325Z,1.23
2023-08-17T05:15:25.037Z,1.25
2023-08-17T05:17:51.677Z,1.25
2023-08-17T05:20:18.169Z,1.65
2023-08-17T05:22:44.681Z,1.33
2023-08-17T05:25:11.189Z,1.65
2023-08-17T05:27:37.804Z,1.70
2023-08-17T05:30:04.837Z,1.35
2023-08-17T05:32:31.400Z,1.33
2023-08-17T05:34:58.441Z,1.77
2023-08-17T05:37:25.017Z,1.73
2023-08-17T05:39:51.739Z,1.40
2023-08-17T05:42:18.236Z,1.27
2023-08-17T05:44:45.535Z,1.98
2023-08-17T05:47:12.141Z,1.45
2023-08-17T05:49:39.195Z,1.35
2023-08-17T05:52:06.044Z,1.45
2023-08-17T05:54:32.520Z,2.10
2023-08-17T05:56:59.100Z,2.13
2023-08-17T05:59:25.684Z,1.42
2023-08-17T06:01:52.230Z,1.33
2023-08-17T06:04:18.725Z,1.80
2023-08-17T06:06:45.273Z,1.75
2023-08-17T06:09:11.946Z,1.63
2023-08-17T06:11:38.721Z,1.73
2023-08-17T06:14:05.577Z,1.90
2023-08-17T06:16:32.078Z,1.52
2023-08-17T06:18:58.581Z,1.23
2023-08-17T06:21:25.136Z,1.70
2023-08-17T06:23:51.651Z,2.35
2023-08-17T06:26:18.097Z,1.52
2023-08-17T06:28:44.812Z,1.70
2023-08-17T06:31:11.314Z,1.90
2023-08-17T06:33:37.778Z,2.38
2023-08-17T06:36:04.494Z,1.90
2023-08-17T06:38:31.106Z,1.48
2023-08-17T06:40:57.529Z,1.83
2023-08-17T06:43:23.920Z,2.10
2023-08-17T06:45:50.504Z,1.65
2023-08-17T06:48:17.021Z,1.95
2023-08-17T06:50:43.657Z,1.45
2023-08-17T06:53:10.396Z,1.50
2023-08-17T06:55:36.893Z,1.92
2023-08-17T06:58:03.545Z,1.85
2023-08-17T07:00:30.406Z,1.58
2023-08-17T07:02:59.579Z,1.58
2023-08-17T07:05:27.700Z,1.80
2023-08-17T07:07:54.270Z,2.00
2023-08-17T07:10:20.986Z,1.60
2023-08-17T07:12:47.487Z,1.48
2023-08-17T07:15:14.006Z,1.98
2023-08-17T07:17:40.694Z,1.58
2023-08-17T07:20:16.367Z,2.05
2023-08-17T07:22:43.917Z,1.50
2023-08-17T07:25:10.588Z,1.58
2023-08-17T07:27:37.441Z,1.60
2023-08-17T07:30:04.293Z,1.73
2023-08-17T07:32:30.749Z,1.45
2023-08-17T07:34:57.208Z,1.50
2023-08-17T07:37:23.810Z,2.63
2023-08-17T07:39:50.473Z,1.45
2023-08-17T07:42:16.941Z,1.60
2023-08-17T07:44:43.487Z,1.73
2023-08-17T07:47:10.078Z,1.60
2023-08-17T07:49:36.569Z,1.80
2023-08-17T07:52:03.129Z,1.60
2023-08-17T07:54:29.623Z,1.48
2023-08-17T07:56:56.144Z,1.63
2023-08-17T07:59:22.596Z,2.22
2023-08-17T08:01:49.246Z,1.55
2023-08-17T08:04:15.855Z,1.90
2023-08-17T08:06:42.935Z,1.70
2023-08-17T08:09:09.565Z,1.98
2023-08-17T08:11:36.080Z,1.20
2023-08-17T08:14:02.541Z,1.40
2023-08-17T08:16:31.681Z,1.17
2023-08-17T08:18:59.134Z,1.50
2023-08-17T08:21:25.794Z,1.67
2023-08-17T08:23:52.267Z,1.73
2023-08-17T08:26:18.761Z,1.50
2023-08-17T08:28:46.497Z,1.50
2023-08-17T08:31:13.046Z,1.55
2023-08-17T08:33:39.620Z,1.42
2023-08-17T08:36:07.316Z,2.17
2023-08-17T08:38:34.092Z,1.70
2023-08-17T08:41:01.684Z,1.27
2023-08-17T08:43:28.180Z,1.65
2023-08-17T08:45:56.102Z,1.52
2023-08-17T08:48:24.230Z,2.20
2023-08-17T08:50:51.309Z,1.52
2023-08-17T08:53:22.394Z,1.55
2023-08-17T08:55:59.575Z,1.63
2023-08-17T08:58:26.693Z,1.40
2023-08-17T09:00:53.497Z,1.45
2023-08-17T09:03:21.659Z,1.35
2023-08-17T09:05:50.244Z,1.67
2023-08-17T09:08:24.253Z,1.40
2023-08-17T09:10:50.737Z,1.65
2023-08-17T09:13:17.385Z,1.63
2023-08-17T09:15:44.007Z,1.70
2023-08-17T09:18:13.737Z,1.80
2023-08-17T09:20:47.247Z,1.33
2023-08-17T09:23:16.858Z,1.90
2023-08-17T09:25:45.416Z,1.83
2023-08-17T09:28:15.641Z,1.58
2023-08-17T09:30:54.697Z,1.55
2023-08-17T09:35:58.527Z,1.65
2023-08-17T09:38:26.024Z,1.73
2023-08-17T09:40:53.133Z,1.80
2023-08-17T09:43:22.208Z,1.45
2023-08-17T09:45:52.818Z,1.70
2023-08-17T09:48:20.426Z,2.13
2023-08-17T09:50:48.193Z,1.92
2023-08-17T09:53:16.644Z,2.38
2023-08-17T09:55:44.402Z,1.38
2023-08-17T09:58:16.029Z,1.90
2023-08-17T10:00:51.855Z,2.00
2023-08-17T10:03:20.738Z,1.70
2023-08-17T10:05:56.034Z,2.15
2023-08-17T10:08:24.169Z,2.22
2023-08-17T10:10:56.584Z,1.48
2023-08-17T10:13:36.009Z,1.98
2023-08-17T10:16:30.056Z,2.40
2023-08-17T10:19:11.466Z,2.15
2023-08-17T10:21:44.698Z,2.20
2023-08-17T10:24:12.883Z,2.00
2023-08-17T10:26:39.832Z,2.15
2023-08-17T10:29:15.330Z,1.98
2023-08-17T10:31:46.450Z,1.52
2023-08-17T10:34:14.575Z,3.33
2023-08-17T10:36:42.177Z,2.72
2023-08-17T10:39:29.137Z,2.08
2023-08-17T10:41:58.072Z,1.92
2023-08-17T10:44:42.695Z,1.55
2023-08-17T10:47:24.670Z,1.75
2023-08-17T10:50:05.094Z,1.95
2023-08-17T10:52:33.989Z,1.77
2023-08-17T10:55:02.388Z,2.42
2023-08-17T10:57:34.508Z,2.03
2023-08-17T11:02:56.463Z,1.92
2023-08-17T11:05:38.860Z,1.88
2023-08-17T11:08:14.859Z,1.90
2023-08-17T11:10:41.533Z,1.60
2023-08-17T11:13:08.443Z,2.05
2023-08-17T11:18:10.491Z,1.90
2023-08-17T11:20:39.609Z,1.67
2023-08-17T11:23:07.570Z,2.30
2023-08-17T11:25:35.389Z,2.25
2023-08-17T11:28:02.862Z,2.67
2023-08-17T11:30:30.059Z,2.25
2023-08-17T11:32:57.877Z,2.50
2023-08-17T11:35:24.614Z,2.55
2023-08-17T11:37:51.253Z,2.55
2023-08-17T11:40:18.224Z,2.20
2023-08-17T11:42:46.724Z,2.47
2023-08-17T11:45:13.837Z,2.15
2023-08-17T11:47:41.860Z,2.47
2023-08-17T11:50:20.452Z,2.22
2023-08-17T11:52:48.157Z,2.05
2023-08-17T11:55:18.856Z,2.13
2023-08-17T11:57:45.931Z,2.17
2023-08-17T12:02:46.398Z,2.15
2023-08-17T12:05:12.935Z,2.20
2023-08-17T12:07:39.650Z,2.75
2023-08-17T12:10:06.964Z,2.47
2023-08-17T12:12:38.007Z,2.35
2023-08-17T12:15:05.377Z,2.65
2023-08-17T12:17:32.012Z,2.70
2023-08-17T12:20:00.349Z,2.45
2023-08-17T12:22:27.545Z,2.83
2023-08-17T12:24:54.525Z,2.65
2023-08-17T12:27:24.881Z,2.80
2023-08-17T12:29:52.439Z,2.47
2023-08-17T12:32:20.927Z,2.05
2023-08-17T12:34:49.635Z,2.00
2023-08-17T12:37:21.894Z,2.55
2023-08-17T12:39:49.531Z,1.95
2023-08-17T12:42:16.546Z,2.30
2023-08-17T12:47:10.505Z,2.30
2023-08-17T12:49:39.443Z,2.15
2023-08-17T12:52:06.420Z,2.25
2023-08-17T12:54:32.882Z,3.00
2023-08-17T12:57:00.612Z,2.70
2023-08-17T12:59:28.385Z,3.03
2023-08-17T13:01:54.813Z,2.72
2023-08-17T13:04:21.238Z,1.77
2023-08-17T13:06:50.009Z,2.13
2023-08-17T13:09:17.036Z,2.13
2023-08-17T13:14:10.027Z,2.13
2023-08-17T13:16:36.613Z,2.38
2023-08-17T13:19:03.649Z,2.55
2023-08-17T13:23:56.487Z,2.33
2023-08-17T13:26:26.187Z,2.53
2023-08-17T13:28:52.729Z,2.65
2023-08-17T13:31:24.872Z,2.63
2023-08-17T13:33:52.197Z,2.42
2023-08-17T13:36:19.315Z,2.33
2023-08-17T13:38:46.875Z,3.20
2023-08-17T13:41:13.934Z,2.53
2023-08-17T13:43:41.347Z,2.75
2023-08-17T13:46:08.204Z,2.80
2023-08-17T13:48:34.995Z,2.22
2023-08-17T13:51:01.440Z,2.50
2023-08-17T13:53:27.851Z,2.67
2023-08-17T13:55:54.963Z,2.72
2023-08-17T13:58:21.565Z,2.13
2023-08-17T14:00:48.021Z,2.63
2023-08-17T14:03:14.544Z,2.40
2023-08-17T14:05:41.611Z,2.05
2023-08-17T14:08:08.758Z,2.28
2023-08-17T14:10:40.170Z,2.33
2023-08-17T14:13:07.264Z,2.80
2023-08-17T14:15:33.781Z,3.15
2023-08-17T14:18:00.385Z,2.10
2023-08-17T14:20:27.964Z,2.30
2023-08-17T14:22:54.557Z,2.70
2023-08-17T14:25:21.025Z,2.53
2023-08-17T14:27:47.490Z,2.60
2023-08-17T14:30:14.293Z,2.55
2023-08-17T14:32:40.718Z,2.45
2023-08-17T14:35:12.315Z,2.92
2023-08-17T14:37:39.592Z,3.38
2023-08-17T14:40:06.703Z,3.38
2023-08-17T14:42:33.266Z,2.88
2023-08-17T14:44:59.721Z,3.28
2023-08-17T14:47:26.804Z,2.42
2023-08-17T14:49:54.516Z,3.22
2023-08-17T14:52:21.020Z,3.05
2023-08-17T14:54:47.457Z,3.15
2023-08-17T14:57:14.015Z,2.53
2023-08-17T14:59:40.395Z,3.28
2023-08-17T15:02:06.891Z,3.50
2023-08-17T15:04:34.164Z,3.30
2023-08-17T15:07:00.609Z,3.13
2023-08-17T15:09:27.127Z,3.05
2023-08-17T15:11:53.555Z,3.40
2023-08-17T15:14:19.975Z,3.28
2023-08-17T15:16:46.377Z,3.22
2023-08-17T15:19:14.181Z,3.50
2023-08-17T15:21:42.059Z,3.05
2023-08-17T15:24:09.879Z,3.88
2023-08-17T15:26:36.480Z,3.10
2023-08-17T15:29:03.274Z,3.58
2023-08-17T15:31:29.804Z,3.50
2023-08-17T15:33:56.322Z,3.38
2023-08-17T15:36:24.876Z,3.53
2023-08-17T15:38:52.055Z,3.38
2023-08-17T15:41:19.660Z,3.80
2023-08-17T15:43:46.078Z,3.83
2023-08-17T15:46:12.683Z,3.80
2023-08-17T15:48:39.349Z,3.25
2023-08-17T15:51:05.815Z,3.85
2023-08-17T15:53:32.292Z,3.67
2023-08-17T15:55:58.744Z,4.43
2023-08-17T15:58:25.242Z,4.15
2023-08-17T16:00:51.762Z,3.90
2023-08-17T16:03:18.277Z,4.35
2023-08-17T16:05:44.745Z,4.13
2023-08-17T16:08:11.694Z,3.78
2023-08-17T16:13:04.781Z,4.07
2023-08-17T16:15:31.220Z,4.75
2023-08-17T16:18:01.213Z,5.25
2023-08-17T16:20:30.643Z,4.32
2023-08-17T16:22:57.216Z,3.80
2023-08-17T16:25:23.678Z,3.95
2023-08-17T16:27:50.196Z,4.57
2023-08-17T16:30:16.651Z,4.70
2023-08-17T16:32:43.275Z,4.68
2023-08-17T16:35:10.970Z,5.10
2023-08-17T16:37:40.730Z,4.53
2023-08-17T16:40:15.099Z,4.35
2023-08-17T16:42:47.836Z,4.68
2023-08-17T16:45:16.141Z,4.95
2023-08-17T16:47:43.115Z,5.72
2023-08-17T16:52:39.797Z,4.72
2023-08-17T16:55:07.007Z,4.72
2023-08-17T16:57:34.217Z,5.15
2023-08-17T17:00:04.451Z,4.63
2023-08-17T17:02:33.146Z,5.50
2023-08-17T17:04:59.637Z,4.60
2023-08-17T17:07:26.443Z,4.90
2023-08-17T17:12:19.446Z,5.25
2023-08-17T17:14:45.946Z,5.07
2023-08-17T17:17:12.464Z,5.30
2023-08-17T17:19:38.904Z,4.85
2023-08-17T17:22:05.529Z,4.70
2023-08-17T17:24:32.595Z,4.85
2023-08-17T17:26:59.144Z,4.78
2023-08-17T17:29:25.604Z,5.18
2023-08-17T17:31:52.928Z,5.63
2023-08-17T17:34:19.568Z,5.65
2023-08-17T17:36:48.464Z,5.10
2023-08-17T17:39:14.895Z,5.20
2023-08-17T17:41:41.518Z,6.00
2023-08-17T17:44:07.967Z,5.05
2023-08-17T17:46:34.802Z,5.70
2023-08-17T17:49:01.342Z,5.05
2023-08-17T17:51:27.794Z,4.65
2023-08-17T17:53:55.312Z,4.85
2023-08-17T17:56:45.795Z,4.78
2023-08-17T17:59:12.587Z,5.20
2023-08-17T18:01:39.722Z,4.70
2023-08-17T18:04:06.873Z,5.40
2023-08-17T18:06:35.262Z,5.68
2023-08-17T18:09:02.131Z,5.72
2023-08-17T18:11:28.677Z,5.80
2023-08-17T18:13:55.164Z,5.75
2023-08-17T18:16:21.678Z,5.65
2023-08-17T18:18:48.453Z,4.95
2023-08-17T18:21:14.888Z,5.53
2023-08-17T18:23:41.274Z,5.43
2023-08-17T18:26:07.884Z,5.10
2023-08-17T18:28:34.295Z,5.40
2023-08-17T18:31:00.950Z,6.28
2023-08-17T18:33:27.504Z,5.78
2023-08-17T18:35:55.208Z,6.35
2023-08-17T18:38:23.343Z,6.28
2023-08-17T18:40:52.379Z,6.07
2023-08-17T18:43:20.558Z,6.32
2023-08-17T18:45:47.130Z,7.28
2023-08-17T18:48:13.992Z,7.20
2023-08-17T18:50:40.709Z,6.55
2023-08-17T18:53:08.212Z,7.15
2023-08-17T18:55:35.083Z,6.55
2023-08-17T18:58:01.838Z,7.13
2023-08-17T19:00:28.633Z,6.35
2023-08-17T19:02:55.264Z,6.68
2023-08-17T19:05:21.962Z,6.50
2023-08-17T19:07:48.668Z,6.15
2023-08-17T19:10:16.183Z,6.50
2023-08-17T19:12:43.147Z,7.05
2023-08-17T19:15:10.185Z,6.20
2023-08-17T19:17:37.019Z,7.43
2023-08-17T19:20:04.019Z,7.25
2023-08-17T19:22:30.459Z,7.05
2023-08-17T19:24:57.130Z,8.07
2023-08-17T19:27:23.697Z,7.82
2023-08-17T19:29:50.418Z,6.88
2023-08-17T19:32:18.557Z,6.70
2023-08-17T19:34:45.021Z,7.95
2023-08-17T19:37:11.599Z,7.82
2023-08-17T19:39:38.114Z,7.50
2023-08-17T19:42:04.993Z,7.82
2023-08-17T19:44:31.615Z,7.00
2023-08-17T19:46:58.364Z,8.20
2023-08-17T19:49:27.743Z,6.97
2023-08-17T19:51:55.310Z,7.85
2023-08-17T19:54:21.795Z,7.38
2023-08-17T19:56:48.341Z,7.35
2023-08-17T19:59:15.083Z,8.27
2023-08-17T20:01:41.760Z,7.82
2023-08-17T20:04:11.837Z,8.07
2023-08-17T20:06:38.509Z,8.02
2023-08-17T20:09:05.552Z,7.30
2023-08-17T20:13:58.556Z,6.55
2023-08-17T20:16:25.079Z,7.00
2023-08-17T20:18:53.178Z,7.20
2023-08-17T20:21:19.887Z,6.80
2023-08-17T20:23:46.802Z,7.05
2023-08-17T20:26:13.473Z,6.57
2023-08-17T20:28:40.248Z,7.05
2023-08-17T20:31:07.196Z,5.95
2023-08-17T20:33:34.212Z,6.80
2023-08-17T20:38:27.426Z,6.85
2023-08-17T20:40:54.466Z,6.57
2023-08-17T20:43:20.947Z,6.18
2023-08-17T20:45:47.574Z,5.65
2023-08-17T20:48:14.457Z,5.80
2023-08-17T20:50:41.629Z,5.35
2023-08-17T20:53:09.946Z,5.32
2023-08-17T20:55:39.560Z,5.65
2023-08-17T20:58:06.828Z,5.97
2023-08-17T21:00:36.639Z,5.35
2023-08-17T21:03:04.974Z,5.40
2023-08-17T21:05:32.637Z,5.03
2023-08-17T21:07:59.973Z,5.15
2023-08-17T21:10:27.007Z,5.18
2023-08-17T21:12:53.477Z,4.45
2023-08-17T21:15:19.964Z,5.25
2023-08-17T21:17:47.054Z,4.65
2023-08-17T21:20:14.333Z,5.18
2023-08-17T21:22:50.313Z,4.72
2023-08-17T21:25:18.137Z,4.97
2023-08-17T21:27:44.744Z,4.60
2023-08-17T21:30:11.427Z,4.45
2023-08-17T21:32:37.973Z,4.45
2023-08-17T21:35:04.873Z,4.57
2023-08-17T21:37:31.802Z,4.47
2023-08-17T21:39:58.578Z,4.45
2023-08-17T21:42:25.078Z,4.47
2023-08-17T21:44:52.642Z,4.85
2023-08-17T21:47:19.260Z,5.35
2023-08-17T21:49:48.063Z,4.55
2023-08-17T21:52:16.204Z,4.28
2023-08-17T21:54:42.954Z,4.30
2023-08-17T21:57:10.554Z,4.47
2023-08-17T21:59:36.995Z,4.82
2023-08-17T22:02:04.082Z,4.47
2023-08-17T22:04:33.640Z,4.72
2023-08-17T22:07:02.408Z,4.15
2023-08-17T22:09:29.845Z,4.55
2023-08-17T22:11:56.840Z,4.13
2023-08-17T22:16:49.607Z,4.88
2023-08-17T22:19:16.200Z,3.97
2023-08-17T22:21:43.221Z,3.50
2023-08-17T22:26:36.495Z,4.18
2023-08-17T22:29:04.426Z,4.18
2023-08-17T22:31:32.180Z,4.20
2023-08-17T22:33:58.653Z,4.35
2023-08-17T22:36:25.377Z,4.35
2023-08-17T22:38:51.802Z,4.55
2023-08-17T22:41:18.222Z,4.43
2023-08-17T22:43:44.693Z,5.13
2023-08-17T22:46:11.421Z,4.22
2023-08-17T22:48:37.984Z,4.32
2023-08-17T22:51:04.471Z,4.40
2023-08-17T22:53:31.178Z,4.05
2023-08-17T22:55:57.803Z,4.25
2023-08-17T22:58:24.311Z,4.00
2023-08-17T23:00:50.775Z,3.90
2023-08-17T23:03:17.419Z,4.35
2023-08-17T23:05:45.263Z,4.45
2023-08-17T23:08:11.678Z,4.63
2023-08-17T23:10:38.088Z,4.05
2023-08-17T23:13:04.763Z,4.38
2023-08-17T23:15:31.190Z,4.53
2023-08-17T23:17:57.949Z,4.25
2023-08-17T23:20:24.411Z,4.82
2023-08-17T23:22:50.875Z,4.07
2023-08-17T23:25:17.412Z,4.35
2023-08-17T23:27:43.991Z,4.60
2023-08-17T23:30:12.286Z,4.90
2023-08-17T23:32:38.769Z,4.55
2023-08-17T23:35:05.824Z,4.43
2023-08-17T23:39:58.930Z,5.13
2023-08-17T23:42:25.372Z,4.50
2023-08-17T23:44:51.841Z,4.50
2023-08-17T23:47:18.320Z,4.60
2023-08-17T23:49:45.533Z,4.70
2023-08-17T23:52:12.404Z,5.43
2023-08-17T23:54:39.117Z,4.90
2023-08-17T23:57:05.859Z,5.72
2023-08-17T23:59:32.290Z,5.30
